createdAt,value
2023-01-12T00:05:42.276Z,100732.94
2023-01-12T00:16:24.207Z,100739.72
2023-01-12T00:26:48.220Z,100741.50
2023-01-12T00:37:09.935Z,100719.31
2023-01-12T00:47:31.299Z,100749.25
2023-01-12T00:57:53.404Z,100752.63
2023-01-12T01:08:14.740Z,100743.78
2023-01-12T01:18:36.099Z,100716.34
2023-01-12T01:28:57.484Z,100733.31
2023-01-12T01:39:18.878Z,100727.50
2023-01-12T01:49:43.422Z,100732.06
2023-01-12T02:00:05.873Z,100720.06
2023-01-12T02:10:27.267Z,100718.59
2023-01-12T02:20:54.779Z,100696.28
2023-01-12T02:31:25.371Z,100698.81
2023-01-12T02:42:12.724Z,100680.47
2023-01-12T02:52:34.267Z,100671.78
2023-01-12T03:02:55.659Z,100649.16
2023-01-12T03:13:18.068Z,100633.38
2023-01-12T03:23:47.336Z,100621.72
2023-01-12T03:34:09.517Z,100624.53
2023-01-12T03:44:38.896Z,100600.63
2023-01-12T03:55:00.567Z,100591.28
2023-01-12T04:05:21.942Z,100551.59
2023-01-12T04:15:43.359Z,100544.00
2023-01-12T04:26:04.782Z,100521.69
2023-01-12T04:36:26.203Z,100509.44
2023-01-12T04:46:51.301Z,100485.41
2023-01-12T04:57:12.690Z,100461.84
2023-01-12T05:07:34.076Z,100451.63
2023-01-12T05:17:56.317Z,100434.41
2023-01-12T05:28:17.677Z,100387.78
2023-01-12T05:38:39.293Z,100381.13
2023-01-12T05:49:00.666Z,100355.19
2023-01-12T05:59:22.039Z,100332.78
2023-01-12T06:09:43.452Z,100301.78
2023-01-12T06:20:05.597Z,100282.00
2023-01-12T06:30:26.961Z,100211.38
2023-01-12T06:40:48.384Z,100154.94
2023-01-12T06:51:09.756Z,100129.25
2023-01-12T07:01:31.150Z,100144.72
2023-01-12T07:11:52.694Z,100130.84
2023-01-12T07:22:14.042Z,100137.13
2023-01-12T07:32:35.481Z,100126.72
2023-01-12T07:43:04.743Z,100112.69
2023-01-12T07:53:26.435Z,100100.28
2023-01-12T08:03:47.857Z,100105.78
2023-01-12T08:14:22.807Z,100106.75
2023-01-12T08:24:47.180Z,100114.88
2023-01-12T08:35:09.361Z,100099.59
2023-01-12T08:45:30.717Z,100110.13
2023-01-12T08:55:55.965Z,100120.09
2023-01-12T09:06:17.396Z,100124.13
2023-01-12T09:16:39.417Z,100125.81
2023-01-12T09:27:01.332Z,100127.88
2023-01-12T09:37:22.744Z,100142.66
2023-01-12T09:47:51.574Z,100147.59
2023-01-12T09:58:17.799Z,100168.53
2023-01-12T10:08:41.378Z,100163.47
2023-01-12T10:19:08.882Z,100175.09
2023-01-12T10:29:31.691Z,100172.13
2023-01-12T10:39:53.227Z,100206.47
2023-01-12T10:50:20.906Z,100205.94
2023-01-12T11:00:46.896Z,100217.53
2023-01-12T11:11:15.702Z,100210.09
2023-01-12T11:21:40.957Z,100219.94
2023-01-12T11:32:06.357Z,100233.78
2023-01-12T11:42:49.657Z,100220.69
2023-01-12T11:53:20.104Z,100239.63
2023-01-12T12:03:50.091Z,100245.69
2023-01-12T12:14:30.494Z,100252.00
2023-01-12T12:24:59.932Z,100265.94
2023-01-12T12:35:28.248Z,100247.38
2023-01-12T12:45:53.694Z,100260.59
2023-01-12T12:56:19.841Z,100264.47
2023-01-12T13:06:48.646Z,100271.91
2023-01-12T13:17:19.164Z,100284.53
2023-01-12T13:27:57.634Z,100286.03
2023-01-12T13:38:26.208Z,100291.38
2023-01-12T13:48:49.470Z,100296.59
2023-01-12T13:59:18.075Z,100303.59
2023-01-12T14:09:55.297Z,100299.09
2023-01-12T14:20:18.456Z,100302.88
2023-01-12T14:30:45.028Z,100304.84
2023-01-12T14:41:27.515Z,100321.34
2023-01-12T14:51:53.628Z,100306.34
2023-01-12T15:02:14.997Z,100298.72
2023-01-12T15:12:52.518Z,100295.19
2023-01-12T15:23:34.156Z,100291.81
2023-01-12T15:33:56.428Z,100286.16
2023-01-12T15:44:18.912Z,100270.28
2023-01-12T15:54:40.785Z,100270.06
2023-01-12T16:05:03.065Z,100272.78
2023-01-12T16:15:25.346Z,100247.91
2023-01-12T16:25:54.677Z,100234.25
2023-01-12T16:36:16.110Z,100214.56
2023-01-12T16:46:37.478Z,100222.25
2023-01-12T16:56:59.152Z,100213.47
2023-01-12T17:07:20.605Z,100196.50
2023-01-12T17:17:42.071Z,100195.72
2023-01-12T17:28:03.844Z,100195.66
2023-01-12T17:38:25.440Z,100184.44
2023-01-12T17:48:50.223Z,100176.69
2023-01-12T17:59:16.599Z,100173.84
2023-01-12T18:09:38.083Z,100158.84
2023-01-12T18:19:59.445Z,100163.28
2023-01-12T18:30:20.963Z,100151.03
2023-01-12T18:40:42.342Z,100160.63
2023-01-12T18:51:22.652Z,100152.69
2023-01-12T19:01:44.164Z,100158.28
2023-01-12T19:12:06.548Z,100160.09
2023-01-12T19:22:46.504Z,100157.91
2023-01-12T19:33:14.533Z,100165.44
2023-01-12T19:43:37.808Z,100173.97
2023-01-12T19:53:59.215Z,100170.31
2023-01-12T20:04:20.621Z,100192.88
2023-01-12T20:14:42.317Z,100169.75
2023-01-12T20:25:04.845Z,100175.91
2023-01-12T20:35:27.242Z,100155.31
2023-01-12T20:45:49.361Z,100157.06
2023-01-12T20:56:11.010Z,100164.88
2023-01-12T21:06:32.718Z,100156.34
2023-01-12T21:16:54.360Z,100159.56
2023-01-12T21:27:15.712Z,100152.56
2023-01-12T21:37:37.595Z,100155.16
2023-01-12T21:47:58.970Z,100156.06
2023-01-12T21:58:20.413Z,100138.44
2023-01-12T22:08:42.495Z,100132.84
2023-01-12T22:19:03.861Z,100132.16
2023-01-12T22:29:25.237Z,100132.69
2023-01-12T22:39:46.609Z,100133.94
2023-01-12T22:50:08.682Z,100138.16
2023-01-12T23:00:30.149Z,100140.84
2023-01-12T23:10:51.674Z,100171.50
2023-01-12T23:21:15.416Z,100164.41
2023-01-12T23:31:36.924Z,100122.31
2023-01-12T23:41:58.372Z,100129.56
2023-01-12T23:52:19.779Z,100135.13
